Easton, United Kingdom
Current Conditions -  °F | °C
As of 7:50 AM on Monday 22 Dec 2014 (Local Time) from EGHH Reporting Station
Broken Clouds Broken Clouds  
Wind Chill: 54°   Ceiling: 1100
Heat Index: 54°   Visibility: 6mi
Dew Point: 52°   Wind: 18mph
Humidity: 94%   Direction: 260°W
Pressure: 30.15"   Gusts: NA
Location:  50.53°N, 2.45°W
Report Text: EGHH 220750Z 26016KT 9999 BKN011 12/11 Q1021
Loading
Personal Weather Stations






























Interactive Weather Map New forecast layout! Learn more

10-Day Weather Forecast

Advertisements
Track Severe Weather on mobile